Time;durP1;ratioP1;P1;durP2;ratioP2;P2;SDS_P1;SDS_P2;PMS_P1;PMS_P2;Temp;Humidity;BMP_temperature;BMP_pressure;BME280_temperature;BME280_humidity;BME280_pressure;Samples;Min_cycle;Max_cycle;Signal;HPM_P1;HPM_P2
2022/01/23 00:02:06;;;;;;;1999.90;999.90;;;;;;;0.58;65.10;102697.97;4993812;22;97892;-72
2022/01/23 00:04:36;;;;;;;1999.90;999.90;;;;;;;0.61;65.16;102695.66;4976522;28;99999;-71
2022/01/23 00:07:08;;;;;;;1999.90;999.90;;;;;;;0.63;65.08;102696.72;4979721;28;98375;-72
2022/01/23 00:09:37;;;;;;;1999.90;999.90;;;;;;;0.62;65.58;102689.63;4959509;28;97885;-71
2022/01/23 00:12:10;;;;;;;1999.90;999.90;;;;;;;0.94;64.25;102698.72;4980256;28;97560;-71
2022/01/23 00:17:24;;;;;;;1999.90;999.90;;;;;;;0.62;65.00;102685.31;4979274;28;98720;-71
2022/01/23 00:19:54;;;;;;;1999.90;999.90;;;;;;;0.60;65.77;102694.72;4982633;28;98114;-71
2022/01/23 00:22:27;;;;;;;1999.90;999.90;;;;;;;0.62;65.54;102703.63;4984676;28;98399;-72
2022/01/23 00:30:26;;;;;;;1999.90;999.90;;;;;;;0.57;65.92;102693.53;4971257;28;96908;-71
2022/01/23 00:32:56;;;;;;;1999.90;999.90;;;;;;;0.54;65.68;102707.25;4982800;28;99405;-71
2022/01/23 00:35:25;;;;;;;1999.90;999.90;;;;;;;0.56;65.28;102705.69;4984042;28;98664;-72
2022/01/23 00:37:54;;;;;;;1999.90;999.90;;;;;;;0.57;65.12;102704.00;4988439;28;97919;-71
2022/01/23 00:40:24;;;;;;;1999.90;999.90;;;;;;;0.52;65.57;102693.09;4987139;28;97634;-71
2022/01/23 00:42:53;;;;;;;1999.90;999.90;;;;;;;0.49;65.03;102707.59;4986905;28;96959;-72
2022/01/23 00:45:33;;;;;;;1999.90;999.90;;;;;;;0.53;65.13;102707.09;4993434;28;97828;-71
2022/01/23 00:48:06;;;;;;;1999.90;999.90;;;;;;;0.44;65.91;102721.97;4983369;28;99803;-72
2022/01/23 00:50:35;;;;;;;1999.90;999.90;;;;;;;0.44;65.16;102714.13;4983064;28;97335;-71
2022/01/23 00:53:08;;;;;;;1999.90;999.90;;;;;;;0.41;65.70;102706.00;4986435;28;97964;-71
2022/01/23 00:55:36;;;;;;;1999.90;999.90;;;;;;;0.41;65.43;102712.13;4985483;28;97118;-69
2022/01/23 00:58:04;;;;;;;1999.90;999.90;;;;;;;0.42;64.85;102708.75;4983583;28;99318;-71
2022/01/23 01:00:32;;;;;;;1999.90;999.90;;;;;;;0.36;65.51;102702.03;4987030;28;96932;-71
2022/01/23 01:03:01;;;;;;;1999.90;999.90;;;;;;;0.38;65.54;102705.69;4986036;28;96840;-71
2022/01/23 01:05:29;;;;;;;1999.90;999.90;;;;;;;0.40;65.66;102714.59;4969306;28;100668;-71
2022/01/23 01:07:59;;;;;;;1999.90;999.90;;;;;;;0.38;65.61;102716.16;4986184;28;100498;-72
2022/01/23 01:10:36;;;;;;;1999.90;999.90;;;;;;;0.38;65.76;102717.09;4984314;28;96871;-71
2022/01/23 01:13:06;;;;;;;1999.90;999.90;;;;;;;0.38;65.29;102717.09;4984734;28;97508;-71
2022/01/23 01:15:51;;;;;;;1999.90;999.90;;;;;;;0.38;65.57;102716.16;4965549;28;98143;-72
2022/01/23 01:32:12;;;;;;;1999.90;999.90;;;;;;;0.40;65.88;102719.84;4983054;28;98240;-70
2022/01/23 01:34:45;;;;;;;1999.90;999.90;;;;;;;0.40;65.71;102717.22;4971482;28;96914;-72
2022/01/23 01:37:14;;;;;;;1999.90;999.90;;;;;;;0.40;65.13;102712.91;4971549;28;97671;-70
2022/01/23 01:39:45;;;;;;;1999.90;999.90;;;;;;;0.37;66.09;102719.56;4988725;28;97397;-70
2022/01/23 01:42:15;;;;;;;1999.90;999.90;;;;;;;0.38;65.46;102717.09;4968371;28;97845;-70
2022/01/23 01:44:43;;;;;;;1999.90;999.90;;;;;;;0.40;65.28;102718.16;4985223;28;96940;-70
2022/01/23 01:47:28;;;;;;;1999.90;999.90;;;;;;;0.42;65.11;102723.53;4988316;28;98206;-70
2022/01/23 01:50:06;;;;;;;1999.90;999.90;;;;;;;0.38;65.78;102718.78;4971865;28;99310;-71
2022/01/23 01:52:35;;;;;;;1999.90;999.90;;;;;;;0.42;64.93;102727.09;5006143;28;98888;-71
2022/01/23 01:55:11;;;;;;;1999.90;999.90;;;;;;;0.40;65.46;102727.69;4988572;28;98824;-71
2022/01/23 01:57:52;;;;;;;1999.90;999.90;;;;;;;0.41;65.25;102729.56;4987608;28;97716;-71
2022/01/23 02:00:45;;;;;;;1999.90;999.90;;;;;;;0.41;64.90;102722.59;4985460;28;99487;-70
2022/01/23 02:08:17;;;;;;;1999.90;999.90;;;;;;;0.31;65.95;102727.78;4973027;28;97072;-71
2022/01/23 02:09:18;;;;;;;1999.90;999.90;;;;;;;0.29;65.71;102726.72;4968378;28;98967;-71
2022/01/23 02:12:07;;;;;;;1999.90;999.90;;;;;;;0.29;65.83;102725.78;4983720;28;97733;-70
2022/01/23 02:14:45;;;;;;;1999.90;999.90;;;;;;;0.28;65.47;102729.19;4987628;28;98989;-69
2022/01/23 02:17:39;;;;;;;1999.90;999.90;;;;;;;0.36;65.49;102736.09;4972118;28;96789;-69
2022/01/23 02:23:19;;;;;;;1999.90;999.90;;;;;;;0.30;65.33;102738.13;4986189;28;99799;-71
2022/01/23 02:51:03;;;;;;;1999.90;999.90;;;;;;;0.35;64.99;102721.13;4989618;28;97026;-71
2022/01/23 02:53:41;;;;;;;1999.90;999.90;;;;;;;0.38;64.88;102716.16;4987190;28;98069;-71
2022/01/23 02:56:19;;;;;;;1999.90;999.90;;;;;;;0.36;64.68;102723.00;4987926;28;97373;-71
2022/01/23 02:58:56;;;;;;;1999.90;999.90;;;;;;;0.33;65.02;102722.69;4971994;28;98226;-71
2022/01/23 03:01:31;;;;;;;1999.90;999.90;;;;;;;0.35;65.10;102721.13;4969401;28;97020;-72
2022/01/23 03:04:09;;;;;;;1999.90;999.90;;;;;;;0.39;64.70;102718.03;4985152;28;99331;-70
2022/01/23 03:07:19;;;;;;;1999.90;999.90;;;;;;;0.37;64.82;102724.81;4982921;28;99191;-71
2022/01/23 03:10:06;;;;;;;1999.90;999.90;;;;;;;0.36;65.07;102716.03;4987073;28;97063;-71
2022/01/23 03:15:59;;;;;;;1999.90;999.90;;;;;;;0.34;65.13;102722.81;4924971;28;97652;-70
2022/01/23 03:24:14;;;;;;;1999.90;999.90;;;;;;;0.41;64.75;102738.31;4986633;28;96832;-71
2022/01/23 03:26:55;;;;;;;1999.90;999.90;;;;;;;0.46;64.79;102742.31;4983008;28;98272;-70
2022/01/23 03:29:25;;;;;;;1999.90;999.90;;;;;;;0.47;64.64;102743.19;4980882;28;98812;-71
2022/01/23 03:32:13;;;;;;;1999.90;999.90;;;;;;;0.47;64.34;102730.09;4984041;28;97064;-71
2022/01/23 03:34:41;;;;;;;1999.90;999.90;;;;;;;0.46;64.74;102738.75;4987218;28;96830;-71
2022/01/23 03:37:08;;;;;;;1999.90;999.90;;;;;;;0.45;64.50;102731.69;4968583;28;98808;-72
2022/01/23 03:39:36;;;;;;;1999.90;999.90;;;;;;;0.43;64.99;102733.25;4983930;28;97303;-69
2022/01/23 03:42:07;;;;;;;1999.90;999.90;;;;;;;0.41;64.75;102742.66;4968376;28;97491;-69
2022/01/23 03:44:40;;;;;;;1999.90;999.90;;;;;;;0.40;64.43;102730.31;4986409;28;97023;-72
2022/01/23 03:47:21;;;;;;;1999.90;999.90;;;;;;;0.44;64.51;102729.84;4986098;28;100485;-71
2022/01/23 03:49:50;;;;;;;1999.90;999.90;;;;;;;0.48;64.48;102718.88;4985488;28;97723;-70
2022/01/23 03:52:36;;;;;;;1999.90;999.90;;;;;;;0.49;64.19;102725.94;4970123;28;98064;-71
2022/01/23 03:55:06;;;;;;;1999.90;999.90;;;;;;;0.50;64.13;102723.50;4985069;28;97887;-70
2022/01/23 03:57:37;;;;;;;1999.90;999.90;;;;;;;0.46;64.94;102713.50;4967078;28;100952;-71
2022/01/23 04:00:07;;;;;;;1999.90;999.90;;;;;;;0.44;64.54;102711.50;4971081;28;100871;-71
2022/01/23 04:02:41;;;;;;;1999.90;999.90;;;;;;;0.51;64.52;102719.13;4984226;28;96908;-71
2022/01/23 04:05:18;;;;;;;1999.90;999.90;;;;;;;0.47;64.24;102728.41;4968375;28;96887;-71
2022/01/23 04:07:46;;;;;;;1999.90;999.90;;;;;;;0.48;64.80;102714.56;4968935;28;100537;-71
2022/01/23 04:10:17;;;;;;;1999.90;999.90;;;;;;;0.48;64.36;102732.91;4984982;28;97549;-71
2022/01/23 04:12:52;;;;;;;1999.90;999.90;;;;;;;0.50;64.56;102731.34;4967750;28;96934;-71
2022/01/23 04:15:29;;;;;;;1999.90;999.90;;;;;;;0.46;64.67;102730.91;4969861;28;97802;-71
2022/01/23 04:18:50;;;;;;;1999.90;999.90;;;;;;;0.44;64.65;102733.38;4969408;28;99303;-70
2022/01/23 04:21:17;;;;;;;1999.90;999.90;;;;;;;0.38;65.08;102726.63;4982071;28;97548;-71
2022/01/23 04:32:22;;;;;;;1999.90;999.90;;;;;;;0.45;64.59;102731.69;4986486;28;97341;-70
2022/01/23 04:35:07;;;;;;;1999.90;999.90;;;;;;;0.43;64.70;102725.41;4969493;28;97660;-69
2022/01/23 04:46:03;;;;;;;1999.90;999.90;;;;;;;0.52;64.73;102731.47;4986462;28;98857;-69
2022/01/23 04:59:40;;;;;;;1999.90;999.90;;;;;;;0.47;64.55;102735.34;4968410;28;96966;-70
2022/01/23 05:02:31;;;;;;;1999.90;999.90;;;;;;;0.51;64.83;102751.50;4982712;28;98822;-70
2022/01/23 05:05:25;;;;;;;1999.90;999.90;;;;;;;0.49;64.13;102765.22;4982959;28;99443;-72
2022/01/23 05:08:19;;;;;;;1999.90;999.90;;;;;;;0.54;63.71;102771.84;4977994;28;97717;-72
2022/01/23 05:11:02;;;;;;;1999.90;999.90;;;;;;;0.42;64.58;102775.91;4986823;28;97235;-72
2022/01/23 05:13:48;;;;;;;1999.90;999.90;;;;;;;0.44;64.83;102774.34;4991800;28;97724;-71
2022/01/23 05:16:18;;;;;;;1999.90;999.90;;;;;;;0.46;64.26;102763.25;4989483;28;97678;-71
2022/01/23 05:18:47;;;;;;;1999.90;999.90;;;;;;;0.45;64.17;102765.75;4975678;28;97276;-71
2022/01/23 05:21:52;;;;;;;1999.90;999.90;;;;;;;0.45;64.47;102766.63;4991437;28;96639;-71
2022/01/23 05:24:11;;;;;;;1999.90;999.90;;;;;;;0.48;64.49;102763.41;4985955;28;99455;-72
2022/01/23 05:26:43;;;;;;;1999.90;999.90;;;;;;;0.51;64.27;102766.28;4988348;28;98745;-71
2022/01/23 05:29:13;;;;;;;1999.90;999.90;;;;;;;0.53;64.06;102768.28;4989182;28;96633;-71
2022/01/23 05:31:41;;;;;;;1999.90;999.90;;;;;;;0.55;64.22;102771.03;4989922;28;98479;-72
2022/01/23 05:34:12;;;;;;;1999.90;999.90;;;;;;;0.55;64.16;102763.19;4970678;28;99663;-71
2022/01/23 05:36:40;;;;;;;1999.90;999.90;;;;;;;0.53;64.30;102765.66;4971668;28;99069;-72
2022/01/23 05:39:09;;;;;;;1999.90;999.90;;;;;;;0.49;64.36;102757.38;4971470;28;98002;-71
2022/01/23 05:41:37;;;;;;;1999.90;999.90;;;;;;;0.46;64.23;102765.88;4985140;28;98213;-71
2022/01/23 05:44:04;;;;;;;1999.90;999.90;;;;;;;0.42;63.95;102770.66;4969638;28;97859;-72
2022/01/23 05:46:32;;;;;;;1999.90;999.90;;;;;;;0.30;64.64;102762.63;4985493;28;97070;-71
2022/01/23 05:49:08;;;;;;;1999.90;999.90;;;;;;;0.43;64.16;102762.06;4966657;28;96918;-72
2022/01/23 05:51:48;;;;;;;1999.90;999.90;;;;;;;0.39;64.35;102767.78;4986459;28;96955;-72
2022/01/23 05:54:36;;;;;;;1999.90;999.90;;;;;;;0.46;64.61;102776.34;4987640;28;99414;-73
2022/01/23 05:57:35;;;;;;;1999.90;999.90;;;;;;;0.47;64.14;102774.63;4973017;28;101089;-71
2022/01/23 06:00:15;;;;;;;1999.90;999.90;;;;;;;0.53;64.19;102775.22;4988232;28;96856;-72
2022/01/23 06:02:52;;;;;;;1999.90;999.90;;;;;;;0.56;63.87;102780.75;4989832;28;97821;-72
2022/01/23 06:05:26;;;;;;;1999.90;999.90;;;;;;;0.53;64.19;102775.22;4972609;28;99775;-71
2022/01/23 06:08:01;;;;;;;1999.90;999.90;;;;;;;0.55;64.20;102789.38;4972596;28;100794;-71
2022/01/23 06:10:36;;;;;;;1999.90;999.90;;;;;;;0.49;64.60;102783.56;4971328;28;96919;-71
2022/01/23 06:13:04;;;;;;;1999.90;999.90;;;;;;;0.44;64.38;102792.69;4973237;28;99002;-72
2022/01/23 06:15:32;;;;;;;1999.90;999.90;;;;;;;0.47;64.90;102800.81;4972280;28;99023;-71
2022/01/23 06:18:00;;;;;;;1999.90;999.90;;;;;;;0.38;65.04;102806.13;4990853;28;97941;-71
2022/01/23 06:20:59;;;;;;;1999.90;999.90;;;;;;;0.35;65.12;102802.31;4989266;28;97264;-72
2022/01/23 06:24:01;;;;;;;1999.90;999.90;;;;;;;0.36;64.86;102804.16;4989362;28;99153;-70
2022/01/23 06:26:50;;;;;;;1999.90;999.90;;;;;;;0.78;64.00;102802.91;4986268;28;97533;-71
2022/01/23 06:29:19;;;;;;;1999.90;999.90;;;;;;;0.59;64.30;102800.28;4972813;28;99179;-72
2022/01/23 06:31:48;;;;;;;1999.90;999.90;;;;;;;0.56;64.53;102812.19;4989445;28;98012;-71
2022/01/23 06:34:18;;;;;;;1999.90;999.90;;;;;;;0.56;64.63;102802.59;4989475;28;97316;-72
2022/01/23 06:36:48;;;;;;;1999.90;999.90;;;;;;;0.54;64.11;102808.50;4985203;28;100581;-72
2022/01/23 06:39:20;;;;;;;1999.90;999.90;;;;;;;0.55;64.02;102815.56;4987032;28;99609;-72
2022/01/23 06:41:51;;;;;;;1999.90;999.90;;;;;;;0.47;64.81;102813.91;4969719;28;97971;-72
2022/01/23 06:44:47;;;;;;;1999.90;999.90;;;;;;;0.49;64.76;102817.59;4978144;28;97190;-72
2022/01/23 06:47:16;;;;;;;1999.90;999.90;;;;;;;0.45;65.17;102818.13;4981533;28;97650;-72
2022/01/23 06:49:44;;;;;;;1999.90;999.90;;;;;;;0.44;64.86;102818.88;4984637;28;99168;-69
2022/01/23 06:52:14;;;;;;;1999.90;999.90;;;;;;;0.44;64.81;102817.19;4964530;28;97343;-72
2022/01/23 06:54:48;;;;;;;1999.90;999.90;;;;;;;0.49;64.90;102826.38;4978910;28;96799;-72
2022/01/23 06:57:16;;;;;;;1999.90;999.90;;;;;;;0.52;64.39;102820.53;4978438;28;98011;-71
2022/01/23 06:59:45;;;;;;;1999.90;999.90;;;;;;;0.50;64.56;102824.72;4998333;28;98141;-72
2022/01/23 07:02:32;;;;;;;1999.90;999.90;;;;;;;0.52;64.59;102820.53;4987127;28;96759;-72
2022/01/23 07:05:17;;;;;;;1999.90;999.90;;;;;;;0.55;64.78;102832.22;4983164;28;97551;-72
2022/01/23 07:07:53;;;;;;;1999.90;999.90;;;;;;;0.52;64.87;102826.66;4966555;28;100320;-71
2022/01/23 07:10:41;;;;;;;1999.90;999.90;;;;;;;0.52;64.99;102839.75;4978427;28;99261;-71
2022/01/23 07:13:25;;;;;;;1999.90;999.90;;;;;;;0.60;64.69;102850.97;4984876;28;98187;-71
2022/01/23 07:16:06;;;;;;;1999.90;999.90;;;;;;;0.56;64.54;102836.66;4967460;28;97408;-70
2022/01/23 07:18:55;;;;;;;1999.90;999.90;;;;;;;0.57;64.75;102843.75;4979371;28;98115;-71
2022/01/23 07:21:26;;;;;;;1999.90;999.90;;;;;;;0.58;64.91;102842.97;4966380;28;99699;-69
2022/01/23 07:23:54;;;;;;;1999.90;999.90;;;;;;;0.63;64.70;102852.16;4965833;28;96986;-72
2022/01/23 07:26:27;;;;;;;1999.90;999.90;;;;;;;0.63;64.89;102853.91;4966369;28;97925;-72
2022/01/23 07:29:01;;;;;;;1999.90;999.90;;;;;;;0.66;64.74;102854.16;4980119;28;98163;-71
2022/01/23 07:34:18;;;;;;;1999.90;999.90;;;;;;;0.65;64.96;102862.81;4956532;28;97912;-71
2022/01/23 07:36:45;;;;;;;1999.90;999.90;;;;;;;0.68;65.00;102855.25;4986047;28;97594;-70
2022/01/23 07:39:32;;;;;;;1999.90;999.90;;;;;;;0.68;64.58;102855.25;4984550;28;97738;-71
2022/01/23 07:42:07;;;;;;;1999.90;999.90;;;;;;;0.70;64.28;102858.94;4984089;28;98028;-71
2022/01/23 07:44:58;;;;;;;1999.90;999.90;;;;;;;0.70;65.05;102857.25;4981356;28;96925;-71
2022/01/23 07:47:35;;;;;;;1999.90;999.90;;;;;;;0.61;65.35;102858.97;4983119;28;97206;-71
2022/01/23 07:50:34;;;;;;;1999.90;999.90;;;;;;;0.61;65.04;102865.94;4966203;28;98220;-70
2022/01/23 07:53:26;;;;;;;1999.90;999.90;;;;;;;0.65;64.95;102860.22;4972283;28;97687;-71
2022/01/23 07:56:29;;;;;;;1999.90;999.90;;;;;;;0.72;64.92;102862.63;4983108;28;98592;-70
2022/01/23 07:59:17;;;;;;;1999.90;999.90;;;;;;;0.67;64.46;102876.97;4981259;28;98199;-71
2022/01/23 08:02:04;;;;;;;1999.90;999.90;;;;;;;0.70;64.73;102883.44;4984725;28;98733;-71
2022/01/23 08:04:41;;;;;;;1999.90;999.90;;;;;;;0.72;64.84;102878.34;4985012;28;100319;-70
2022/01/23 08:07:30;;;;;;;1999.90;999.90;;;;;;;0.78;64.82;102878.88;4984089;28;99007;-69
2022/01/23 08:10:11;;;;;;;1999.90;999.90;;;;;;;0.71;64.95;102871.25;4965965;28;98247;-70
2022/01/23 08:12:41;;;;;;;1999.90;999.90;;;;;;;0.67;64.89;102880.50;4979848;28;99392;-70
2022/01/23 08:15:10;;;;;;;1999.90;999.90;;;;;;;0.69;65.13;102889.44;4980167;28;100860;-71
2022/01/23 08:17:38;;;;;;;1999.90;999.90;;;;;;;0.67;64.42;102885.75;4982174;28;97215;-70
2022/01/23 08:20:07;;;;;;;1999.90;999.90;;;;;;;0.71;64.94;102887.88;4983168;28;96807;-69
2022/01/23 08:22:35;;;;;;;1999.90;999.90;;;;;;;0.75;64.82;102892.66;4983287;28;98915;-70
2022/01/23 08:25:03;;;;;;;1999.90;999.90;;;;;;;0.78;64.32;102892.00;4981327;28;97527;-70
2022/01/23 08:27:31;;;;;;;1999.90;999.90;;;;;;;0.77;64.64;102898.03;4983797;28;97829;-70
2022/01/23 08:29:59;;;;;;;1999.90;999.90;;;;;;;0.76;64.70;102898.78;4983744;28;96839;-70
2022/01/23 08:32:28;;;;;;;1999.90;999.90;;;;;;;0.78;64.12;102899.84;4985030;28;98699;-70
2022/01/23 08:34:56;;;;;;;1999.90;999.90;;;;;;;0.83;64.47;102899.50;4985158;28;97580;-70
2022/01/23 08:37:24;;;;;;;1999.90;999.90;;;;;;;0.87;63.82;102903.34;4983934;28;97170;-71
2022/01/23 08:39:52;;;;;;;1999.90;999.90;;;;;;;0.88;64.27;102895.63;4984914;28;96848;-70
2022/01/23 08:42:19;;;;;;;1999.90;999.90;;;;;;;0.88;64.94;102903.50;4985979;28;99749;-70
2022/01/23 08:44:49;;;;;;;1999.90;999.90;;;;;;;0.87;64.53;102905.94;4986608;28;97231;-71
2022/01/23 08:47:17;;;;;;;1999.90;999.90;;;;;;;0.90;64.92;102911.50;4989497;28;99061;-70
2022/01/23 08:49:48;;;;;;;1999.90;999.90;;;;;;;0.88;64.58;102899.97;4989270;28;98249;-70
2022/01/23 08:52:19;;;;;;;1999.90;999.90;;;;;;;0.92;64.48;102903.00;4983427;28;98094;-70
2022/01/23 08:54:49;;;;;;;1999.90;999.90;;;;;;;0.91;64.31;102903.78;4988169;28;99220;-70
2022/01/23 08:57:18;;;;;;;1999.90;999.90;;;;;;;0.91;64.71;102903.78;4988341;28;97559;-70
2022/01/23 08:59:46;;;;;;;1999.90;999.90;;;;;;;0.95;64.61;102905.00;4987639;28;96797;-70
2022/01/23 09:02:14;;;;;;;1999.90;999.90;;;;;;;0.99;64.04;102907.13;4987491;28;98440;-70
2022/01/23 09:04:42;;;;;;;1999.90;999.90;;;;;;;1.01;64.41;102903.84;4986864;28;98459;-70
2022/01/23 09:07:11;;;;;;;1999.90;999.90;;;;;;;1.05;64.88;102905.06;4993141;28;97473;-70
2022/01/23 09:09:40;;;;;;;1999.90;999.90;;;;;;;1.08;64.56;102897.50;4987922;28;97329;-70
2022/01/23 09:12:26;;;;;;;1999.90;999.90;;;;;;;1.10;63.72;102898.56;4985158;28;99282;-70
2022/01/23 09:14:54;;;;;;;1999.90;999.90;;;;;;;1.12;64.18;102899.63;4986297;28;97938;-70
2022/01/23 09:17:21;;;;;;;1999.90;999.90;;;;;;;1.10;63.92;102906.41;4984075;28;98305;-71
2022/01/23 09:19:51;;;;;;;1999.90;999.90;;;;;;;1.12;64.22;102900.50;4984713;28;96962;-70
2022/01/23 09:22:20;;;;;;;1999.90;999.90;;;;;;;1.12;64.61;102897.00;4972125;28;99218;-71
2022/01/23 09:24:48;;;;;;;1999.90;999.90;;;;;;;1.15;64.78;102900.81;4985278;28;99010;-70
2022/01/23 09:27:19;;;;;;;1999.90;999.90;;;;;;;1.16;64.25;102896.47;4974675;28;98106;-71
2022/01/23 09:29:50;;;;;;;1999.90;999.90;;;;;;;1.20;64.56;102899.53;4956014;28;99195;-70
2022/01/23 09:32:20;;;;;;;1999.90;999.90;;;;;;;1.21;64.43;102895.22;4973197;28;100177;-70
2022/01/23 09:34:51;;;;;;;1999.90;999.90;;;;;;;1.23;64.21;102904.16;4982636;28;98689;-71
2022/01/23 09:37:20;;;;;;;1999.90;999.90;;;;;;;1.26;64.19;102899.19;4984583;28;96717;-70
2022/01/23 09:39:50;;;;;;;1999.90;999.90;;;;;;;1.26;64.04;102899.19;4982343;28;96763;-71
2022/01/23 09:42:21;;;;;;;1999.90;999.90;;;;;;;1.31;64.50;102902.22;4973328;28;98002;-70
2022/01/23 09:44:52;;;;;;;1999.90;999.90;;;;;;;1.26;64.86;102914.91;4975098;28;99992;-71
2022/01/23 09:47:21;;;;;;;1999.90;999.90;;;;;;;1.27;64.57;102916.75;4973250;28;99076;-70
2022/01/23 09:49:50;;;;;;;1999.90;999.90;;;;;;;1.29;64.22;102917.81;4978368;28;98638;-71
2022/01/23 09:52:19;;;;;;;1999.90;999.90;;;;;;;1.33;63.98;102916.38;4983812;28;98016;-72
2022/01/23 09:54:57;;;;;;;1999.90;999.90;;;;;;;1.23;64.90;102919.88;4985742;28;98857;-71
2022/01/23 09:57:28;;;;;;;1999.90;999.90;;;;;;;1.26;64.58;102917.53;4987532;28;98268;-71
2022/01/23 09:59:57;;;;;;;1999.90;999.90;;;;;;;1.24;64.85;102921.72;4988245;28;97112;-70
2022/01/23 10:02:25;;;;;;;1999.90;999.90;;;;;;;1.31;64.65;102924.13;4985819;28;97165;-70
2022/01/23 10:04:54;;;;;;;1999.90;999.90;;;;;;;1.36;64.55;102928.09;4983387;28;99133;-70
2022/01/23 10:07:22;;;;;;;1999.90;999.90;;;;;;;1.36;64.54;102935.94;4983248;28;97408;-71
2022/01/23 10:09:56;;;;;;;1999.90;999.90;;;;;;;1.45;64.43;102935.91;4982332;28;100092;-70
2022/01/23 10:12:26;;;;;;;1999.90;999.90;;;;;;;1.52;64.33;102933.97;4983957;28;99347;-71
2022/01/23 10:14:54;;;;;;;1999.90;999.90;;;;;;;1.55;63.92;102936.88;4985754;28;99691;-70
2022/01/23 10:17:22;;;;;;;1999.90;999.90;;;;;;;1.55;64.50;102942.13;4976931;28;97165;-71
2022/01/23 10:19:51;;;;;;;1999.90;999.90;;;;;;;1.59;64.53;102944.25;4981015;28;98694;-70
2022/01/23 10:22:36;;;;;;;1999.90;999.90;;;;;;;1.62;64.43;102936.66;4981943;28;98737;-70
2022/01/23 10:25:23;;;;;;;1999.90;999.90;;;;;;;1.66;64.15;102948.34;4981535;28;98736;-71
2022/01/23 10:28:08;;;;;;;1999.90;999.90;;;;;;;1.64;63.91;102945.59;4981770;28;98192;-70
2022/01/23 10:30:39;;;;;;;1999.90;999.90;;;;;;;1.66;64.29;102949.28;4982546;28;98584;-72
2022/01/23 10:33:10;;;;;;;1999.90;999.90;;;;;;;1.67;64.44;102943.22;4982280;28;97969;-71
2022/01/23 10:36:03;;;;;;;1999.90;999.90;;;;;;;1.69;64.29;102946.91;4980667;28;97743;-71
2022/01/23 10:38:35;;;;;;;1999.90;999.90;;;;;;;1.72;63.93;102943.66;4979808;28;97280;-72
2022/01/23 10:41:29;;;;;;;1999.90;999.90;;;;;;;1.73;64.40;102948.13;4983704;28;97519;-72
2022/01/23 10:47:29;;;;;;;1999.90;999.90;;;;;;;1.74;63.78;102935.16;4982029;28;99599;-70
2022/01/23 10:49:58;;;;;;;1999.90;999.90;;;;;;;1.78;64.05;102939.88;4985323;28;97816;-70
2022/01/23 10:52:28;;;;;;;1999.90;999.90;;;;;;;1.80;64.41;102940.00;4984146;28;97411;-70
2022/01/23 10:54:56;;;;;;;1999.90;999.90;;;;;;;1.83;63.71;102936.00;4983192;28;97106;-70
2022/01/23 10:57:35;;;;;;;1999.90;999.90;;;;;;;1.78;64.11;102944.22;4980688;28;99312;-72
2022/01/23 11:00:06;;;;;;;1999.90;999.90;;;;;;;1.79;64.26;102936.50;4981343;28;98107;-70
2022/01/23 11:02:39;;;;;;;1999.90;999.90;;;;;;;1.77;63.93;102930.19;4980522;28;97974;-72
2022/01/23 11:05:10;;;;;;;1999.90;999.90;;;;;;;1.78;63.80;102932.00;4978491;28;97674;-70
2022/01/23 11:07:41;;;;;;;1999.90;999.90;;;;;;;1.84;63.93;102927.31;4978411;28;97952;-71
2022/01/23 11:10:10;;;;;;;1999.90;999.90;;;;;;;1.88;64.12;102929.44;4964352;28;96798;-71
2022/01/23 11:18:15;;;;;;;1999.90;999.90;;;;;;;1.92;63.94;102920.13;4983403;28;100684;-70
2022/01/23 11:20:46;;;;;;;1999.90;999.90;;;;;;;1.90;64.15;102925.25;4982616;28;98193;-73
2022/01/23 11:23:16;;;;;;;1999.90;999.90;;;;;;;1.89;64.27;102914.63;4966503;28;97816;-72
2022/01/23 11:25:47;;;;;;;1999.90;999.90;;;;;;;1.90;64.15;102921.69;4979137;28;100289;-69
2022/01/23 11:28:28;;;;;;;1999.90;999.90;;;;;;;1.86;64.94;102916.94;4997520;28;100702;-72
2022/01/23 11:30:56;;;;;;;1999.90;999.90;;;;;;;1.88;64.31;102918.94;4980559;28;99639;-71
2022/01/23 11:33:24;;;;;;;1999.90;999.90;;;;;;;1.86;64.02;102920.50;4978790;28;98833;-72
2022/01/23 11:35:52;;;;;;;1999.90;999.90;;;;;;;1.84;64.00;102914.19;4980263;28;99029;-72
2022/01/23 11:38:22;;;;;;;1999.90;999.90;;;;;;;1.85;64.23;102912.50;4982343;28;98176;-71
2022/01/23 11:55:01;;;;;;;1999.90;999.90;;;;;;;1.97;63.92;102908.34;4985554;28;97253;-71
2022/01/23 11:57:41;;;;;;;1999.90;999.90;;;;;;;1.98;63.73;102916.34;4968382;28;99382;-71
2022/01/23 12:00:15;;;;;;;1999.90;999.90;;;;;;;2.02;63.94;102917.53;4985176;28;99068;-71
2022/01/23 12:02:44;;;;;;;1999.90;999.90;;;;;;;2.06;63.57;102911.78;4983195;28;97626;-71
2022/01/23 12:05:26;;;;;;;1999.90;999.90;;;;;;;2.04;63.81;102911.66;4984033;28;96931;-71
2022/01/23 12:08:30;;;;;;;1999.90;999.90;;;;;;;2.01;64.48;102905.19;4983060;28;99331;-71
2022/01/23 12:17:14;;;;;;;1999.90;999.90;;;;;;;1.90;64.92;102896.38;4985695;28;97275;-71
2022/01/23 12:19:47;;;;;;;1999.90;999.90;;;;;;;1.89;63.95;102901.50;4982073;28;99668;-71
2022/01/23 12:22:28;;;;;;;1999.90;999.90;;;;;;;1.90;64.22;102900.69;4985465;28;98273;-71
2022/01/23 12:24:59;;;;;;;1999.90;999.90;;;;;;;1.94;64.77;102890.63;4985723;28;97021;-71
2022/01/23 12:27:32;;;;;;;1999.90;999.90;;;;;;;1.96;64.22;102890.75;4986439;28;98329;-71
2022/01/23 12:30:13;;;;;;;1999.90;999.90;;;;;;;1.99;64.05;102891.00;4985318;28;99144;-71
2022/01/23 12:32:47;;;;;;;1999.90;999.90;;;;;;;2.05;64.75;102894.19;4987765;28;98871;-71
2022/01/23 12:35:16;;;;;;;1999.90;999.90;;;;;;;2.03;64.00;102899.31;4987218;28;97372;-71
2022/01/23 12:38:09;;;;;;;1999.90;999.90;;;;;;;2.03;64.45;102899.31;4989238;28;96936;-71
2022/01/23 12:40:41;;;;;;;1999.90;999.90;;;;;;;2.03;64.40;102894.06;4987101;28;97737;-71
2022/01/23 12:43:10;;;;;;;1999.90;999.90;;;;;;;2.01;64.17;102893.00;4984150;28;98034;-70
2022/01/23 12:45:46;;;;;;;1999.90;999.90;;;;;;;2.03;64.88;102885.25;4981332;28;98701;-70
2022/01/23 12:48:47;;;;;;;1999.90;999.90;;;;;;;2.01;64.61;102894.69;4979768;28;98859;-71
2022/01/23 12:51:41;;;;;;;1999.90;999.90;;;;;;;1.94;64.77;102895.88;4980410;28;97973;-71
2022/01/23 12:54:16;;;;;;;1999.90;999.90;;;;;;;1.99;64.65;102894.56;4979108;28;99230;-71
2022/01/23 12:56:45;;;;;;;1999.90;999.90;;;;;;;1.95;64.72;102897.69;4981074;28;97588;-71
2022/01/23 12:59:21;;;;;;;1999.90;999.90;;;;;;;1.97;65.11;102889.94;4977174;28;98978;-72
2022/01/23 13:01:54;;;;;;;1999.90;999.90;;;;;;;1.96;65.10;102891.66;4978314;28;97494;-72
2022/01/23 13:04:24;;;;;;;1999.90;999.90;;;;;;;1.95;65.41;102884.56;4977303;28;100386;-70
2022/01/23 13:06:52;;;;;;;1999.90;999.90;;;;;;;2.01;64.87;102887.75;4977496;28;96926;-71
2022/01/23 13:09:25;;;;;;;1999.90;999.90;;;;;;;2.05;64.38;102891.56;4980161;28;98532;-71
2022/01/23 13:12:03;;;;;;;1999.90;999.90;;;;;;;2.03;65.27;102896.69;4983310;28;97016;-70
2022/01/23 13:14:39;;;;;;;1999.90;999.90;;;;;;;2.07;64.15;102895.25;4984808;28;99146;-70
2022/01/23 13:26:24;;;;;;;1999.90;999.90;;;;;;;2.08;63.98;102894.44;4980725;28;97167;-70
2022/01/23 13:29:33;;;;;;;1999.90;999.90;;;;;;;2.07;64.62;102905.75;4983732;28;99849;-72
2022/01/23 13:31:41;;;;;;;1999.90;999.90;;;;;;;2.05;64.20;102897.72;4983929;28;97170;-72
2022/01/23 13:34:26;;;;;;;1999.90;999.90;;;;;;;2.00;64.68;102909.53;4985829;28;99075;-70
2022/01/23 13:36:57;;;;;;;1999.90;999.90;;;;;;;1.97;64.58;102900.47;4998377;28;101405;-71
2022/01/23 13:39:28;;;;;;;1999.90;999.90;;;;;;;1.98;65.09;102897.06;4983153;28;99139;-72
2022/01/23 13:42:11;;;;;;;1999.90;999.90;;;;;;;2.00;64.97;102899.03;4984961;28;98215;-73